createdAt,value
2023-03-27T00:00:29.785Z,99.90
2023-03-27T00:01:32.732Z,99.90
2023-03-27T00:02:34.743Z,99.90
2023-03-27T00:03:38.029Z,99.90
2023-03-27T00:04:41.133Z,99.90
2023-03-27T00:05:45.858Z,99.90
2023-03-27T00:06:49.011Z,99.90
2023-03-27T00:07:53.861Z,99.90
2023-03-27T00:08:55.837Z,99.90
2023-03-27T00:09:58.770Z,99.90
2023-03-27T00:11:01.178Z,99.90
2023-03-27T00:12:04.081Z,99.90
2023-03-27T00:13:06.826Z,99.90
2023-03-27T00:14:10.120Z,99.90
2023-03-27T00:15:17.409Z,99.90
2023-03-27T00:16:21.564Z,99.90
2023-03-27T00:17:24.230Z,99.90
2023-03-27T00:18:29.642Z,99.90
2023-03-27T00:19:31.668Z,99.90
2023-03-27T00:20:37.507Z,99.90
2023-03-27T00:21:40.490Z,99.90
2023-03-27T00:22:43.471Z,99.90
2023-03-27T00:23:46.014Z,99.90
2023-03-27T00:24:49.011Z,99.90
2023-03-27T00:25:51.267Z,99.90
2023-03-27T00:26:54.914Z,99.90
2023-03-27T00:27:58.543Z,99.90
2023-03-27T00:29:01.768Z,99.90
2023-03-27T00:30:05.138Z,99.90
2023-03-27T00:31:13.575Z,99.90
2023-03-27T00:32:15.632Z,99.90
2023-03-27T00:33:18.531Z,99.90
2023-03-27T00:34:20.450Z,99.90
2023-03-27T00:35:23.700Z,99.90
2023-03-27T00:36:25.969Z,99.90
2023-03-27T00:37:28.905Z,99.90
2023-03-27T00:38:31.413Z,99.90
2023-03-27T00:39:34.306Z,99.90
2023-03-27T00:40:37.755Z,99.90
2023-03-27T00:41:40.702Z,99.90
2023-03-27T00:42:42.613Z,99.90
2023-03-27T00:43:45.562Z,99.90
2023-03-27T00:44:47.462Z,99.90
2023-03-27T00:45:54.778Z,99.90
2023-03-27T00:46:59.200Z,99.90
2023-03-27T00:48:04.566Z,99.90
2023-03-27T00:49:10.959Z,99.90
2023-03-27T00:50:18.599Z,99.90
2023-03-27T00:51:25.362Z,99.90
2023-03-27T00:52:29.512Z,99.90
2023-03-27T00:53:33.397Z,99.90
2023-03-27T00:54:38.850Z,99.90
2023-03-27T00:55:46.024Z,99.90
2023-03-27T00:56:49.805Z,99.90
2023-03-27T00:57:58.503Z,99.90
2023-03-27T00:59:03.025Z,99.90
2023-03-27T01:00:12.920Z,99.90
2023-03-27T01:01:16.619Z,99.90
2023-03-27T01:02:22.489Z,99.90
2023-03-27T01:03:26.994Z,99.90
2023-03-27T01:04:31.525Z,99.90
2023-03-27T01:05:34.168Z,99.90
2023-03-27T01:06:38.005Z,99.90
2023-03-27T01:07:40.955Z,99.90
2023-03-27T01:09:04.580Z,99.90
2023-03-27T01:10:08.731Z,99.90
2023-03-27T01:11:21.140Z,99.90
2023-03-27T01:12:38.378Z,99.90
2023-03-27T01:14:01.651Z,99.90
2023-03-27T01:15:25.255Z,99.90
2023-03-27T01:16:35.943Z,99.90
2023-03-27T01:17:52.230Z,99.90
2023-03-27T01:19:10.303Z,99.90
2023-03-27T01:20:41.167Z,99.90
2023-03-27T01:22:19.703Z,99.90
2023-03-27T01:23:59.530Z,99.90
2023-03-27T01:25:42.092Z,99.90
2023-03-27T01:27:02.251Z,99.90
2023-03-27T01:28:28.158Z,99.90
2023-03-27T01:29:42.782Z,99.90
2023-03-27T01:30:56.297Z,99.90
2023-03-27T01:32:32.439Z,99.90
2023-03-27T01:34:02.717Z,99.90
2023-03-27T01:35:28.512Z,99.90
2023-03-27T01:37:06.475Z,99.90
2023-03-27T01:38:37.000Z,99.90
2023-03-27T01:39:50.006Z,99.90
2023-03-27T01:40:59.147Z,99.90
2023-03-27T01:42:09.773Z,99.90
2023-03-27T01:43:15.666Z,99.90
2023-03-27T01:44:25.185Z,99.90
2023-03-27T01:45:51.500Z,99.90
2023-03-27T01:46:59.599Z,99.90
2023-03-27T01:48:06.967Z,99.90
2023-03-27T01:49:13.323Z,99.90
2023-03-27T01:50:21.678Z,99.90
2023-03-27T01:51:29.996Z,99.90
2023-03-27T01:52:36.641Z,99.90
2023-03-27T01:53:43.583Z,99.90
2023-03-27T01:54:54.841Z,99.90
2023-03-27T01:56:02.140Z,99.90
2023-03-27T01:57:10.204Z,99.90
2023-03-27T01:58:17.809Z,99.90
2023-03-27T01:59:22.691Z,99.90
2023-03-27T02:00:27.374Z,99.90
2023-03-27T02:01:58.753Z,99.90
2023-03-27T02:03:08.246Z,99.90
2023-03-27T02:04:14.581Z,99.90
2023-03-27T02:05:21.630Z,99.90
2023-03-27T02:06:28.374Z,99.90
2023-03-27T02:07:44.140Z,99.90
2023-03-27T02:08:50.348Z,99.90
2023-03-27T02:10:01.016Z,99.90
2023-03-27T02:11:04.587Z,99.90
2023-03-27T02:12:11.896Z,99.90
2023-03-27T02:13:18.420Z,99.90
2023-03-27T02:14:24.350Z,99.90
2023-03-27T02:15:30.620Z,99.90
2023-03-27T02:16:42.614Z,99.90
2023-03-27T02:17:48.791Z,99.90
2023-03-27T02:18:56.714Z,99.90
2023-03-27T02:20:09.389Z,99.90
2023-03-27T02:21:14.127Z,99.90
2023-03-27T02:22:16.353Z,99.90
2023-03-27T02:23:19.265Z,99.90
2023-03-27T02:24:21.248Z,99.90
2023-03-27T02:25:31.469Z,99.90
2023-03-27T02:26:33.788Z,99.90
2023-03-27T02:27:45.682Z,99.90
2023-03-27T02:29:02.316Z,99.90
2023-03-27T02:30:14.617Z,99.90
2023-03-27T02:31:32.523Z,99.90
2023-03-27T02:32:46.403Z,99.90
2023-03-27T02:34:05.518Z,99.90
2023-03-27T02:35:27.488Z,99.90
2023-03-27T02:36:37.032Z,99.90
2023-03-27T02:37:52.018Z,99.90
2023-03-27T02:39:02.243Z,99.90
2023-03-27T02:40:14.119Z,99.90
2023-03-27T02:41:22.285Z,99.90
2023-03-27T02:42:31.546Z,99.90
2023-03-27T02:43:36.936Z,99.90
2023-03-27T02:44:47.539Z,99.90
2023-03-27T02:45:54.676Z,99.90
2023-03-27T02:47:05.184Z,99.90
2023-03-27T02:48:12.253Z,99.90
2023-03-27T02:49:19.363Z,99.90
2023-03-27T02:50:28.354Z,99.90
2023-03-27T02:51:34.927Z,99.90
2023-03-27T02:52:42.136Z,99.90
2023-03-27T02:53:51.698Z,99.90
2023-03-27T02:54:59.204Z,99.90
2023-03-27T02:56:04.307Z,99.90
2023-03-27T02:57:11.867Z,99.90
2023-03-27T02:58:19.799Z,99.90
2023-03-27T02:59:25.466Z,99.90
2023-03-27T03:00:30.179Z,99.90
2023-03-27T03:01:33.840Z,99.90
2023-03-27T03:02:38.222Z,99.90
2023-03-27T03:03:44.571Z,99.90
2023-03-27T03:04:57.063Z,99.90
2023-03-27T03:05:59.622Z,99.90
2023-03-27T03:07:04.384Z,99.90
2023-03-27T03:08:10.414Z,99.90
2023-03-27T03:09:14.961Z,99.90
2023-03-27T03:10:17.370Z,99.90
2023-03-27T03:11:22.650Z,99.90
2023-03-27T03:12:25.979Z,99.90
2023-03-27T03:13:28.887Z,99.90
2023-03-27T03:14:35.154Z,99.90
2023-03-27T03:15:39.106Z,99.90
2023-03-27T03:16:41.145Z,99.90
2023-03-27T03:17:44.152Z,99.90
2023-03-27T03:18:46.223Z,99.90
2023-03-27T03:19:49.632Z,99.90
2023-03-27T03:20:54.060Z,99.90
2023-03-27T03:21:57.034Z,99.90
2023-03-27T03:22:58.996Z,99.90
2023-03-27T03:24:02.110Z,99.90
2023-03-27T03:25:04.985Z,99.90
2023-03-27T03:26:08.552Z,99.90
2023-03-27T03:27:10.820Z,99.90
2023-03-27T03:28:18.103Z,99.90
2023-03-27T03:29:20.400Z,99.90
2023-03-27T03:30:23.353Z,99.90
2023-03-27T03:31:25.339Z,99.90
2023-03-27T03:32:30.457Z,99.90
2023-03-27T03:33:32.531Z,99.90
2023-03-27T03:34:35.484Z,99.90
2023-03-27T03:35:37.525Z,99.90
2023-03-27T03:36:41.954Z,99.90
2023-03-27T03:37:50.704Z,99.90
2023-03-27T03:39:56.586Z,99.90
2023-03-27T03:41:00.712Z,99.90
2023-03-27T03:42:02.723Z,99.90
2023-03-27T03:43:05.709Z,99.90
2023-03-27T03:44:10.864Z,99.90
2023-03-27T03:45:13.542Z,99.90
2023-03-27T03:46:16.545Z,99.90
2023-03-27T03:47:18.547Z,99.90
2023-03-27T03:48:22.543Z,99.90
2023-03-27T03:49:24.480Z,99.90
2023-03-27T03:50:27.455Z,99.90
2023-03-27T03:51:31.307Z,99.90
2023-03-27T03:52:34.267Z,99.90
2023-03-27T03:53:36.531Z,99.90
2023-03-27T03:54:40.434Z,99.90
2023-03-27T03:55:42.766Z,99.90
2023-03-27T03:56:45.797Z,99.90
2023-03-27T03:57:48.068Z,99.90
2023-03-27T03:58:51.334Z,99.90
2023-03-27T03:59:54.646Z,99.90
2023-03-27T04:00:57.703Z,99.90
2023-03-27T04:02:00.511Z,99.90
2023-03-27T04:03:04.479Z,99.90
2023-03-27T04:04:08.338Z,99.90
2023-03-27T04:05:12.046Z,99.90
2023-03-27T04:06:17.437Z,99.90
2023-03-27T04:07:23.568Z,99.90
2023-03-27T04:08:26.787Z,99.90
2023-03-27T04:09:28.693Z,99.90
2023-03-27T04:10:31.640Z,99.90
2023-03-27T04:11:34.036Z,99.90
2023-03-27T04:12:37.010Z,99.90
2023-03-27T04:13:38.951Z,99.90
2023-03-27T04:14:41.848Z,99.90
2023-03-27T04:15:45.301Z,99.90
2023-03-27T04:16:48.312Z,99.90
2023-03-27T04:17:50.993Z,99.90
2023-03-27T04:19:57.591Z,99.90
2023-03-27T04:21:00.551Z,99.90
2023-03-27T04:22:03.434Z,99.90
2023-03-27T04:23:08.103Z,99.90
2023-03-27T04:24:14.006Z,99.90
2023-03-27T04:25:18.640Z,99.90
2023-03-27T04:26:26.364Z,99.90
2023-03-27T04:27:30.342Z,99.90
2023-03-27T04:28:34.655Z,99.90
2023-03-27T04:29:37.719Z,99.90
2023-03-27T04:30:39.616Z,99.90
2023-03-27T04:31:46.850Z,99.90
2023-03-27T04:32:49.717Z,99.90
2023-03-27T04:33:52.914Z,99.90
2023-03-27T04:34:54.874Z,99.90
2023-03-27T04:36:06.408Z,99.90
2023-03-27T04:37:09.530Z,99.90
2023-03-27T04:38:12.489Z,99.90
2023-03-27T04:39:17.259Z,99.90
2023-03-27T04:40:20.907Z,99.90
2023-03-27T04:41:22.938Z,99.90
2023-03-27T04:43:29.276Z,99.90
2023-03-27T04:44:32.223Z,99.90
2023-03-27T04:45:34.855Z,99.90
2023-03-27T04:46:40.213Z,99.90
2023-03-27T04:47:44.069Z,99.90
2023-03-27T04:48:47.076Z,99.90
2023-03-27T04:49:50.921Z,99.90
2023-03-27T04:51:56.865Z,99.90
2023-03-27T04:54:05.239Z,99.90
2023-03-27T04:55:08.990Z,99.90
2023-03-27T04:57:15.810Z,99.90
2023-03-27T04:58:19.191Z,99.90
2023-03-27T04:59:22.434Z,99.90
2023-03-27T05:00:25.399Z,99.90
2023-03-27T05:01:28.745Z,99.90
2023-03-27T05:02:34.475Z,99.90
2023-03-27T05:03:39.118Z,99.90
2023-03-27T05:04:42.160Z,99.90
2023-03-27T05:05:44.103Z,99.90
2023-03-27T05:06:47.003Z,99.90
2023-03-27T05:07:49.680Z,99.90
2023-03-27T05:09:55.853Z,99.90
2023-03-27T05:12:01.564Z,99.90
2023-03-27T05:13:04.496Z,99.90
2023-03-27T05:14:07.051Z,99.90
2023-03-27T05:15:11.023Z,99.90
2023-03-27T05:16:12.979Z,99.90
2023-03-27T05:17:16.456Z,99.90
2023-03-27T05:19:24.950Z,99.90
2023-03-27T05:20:29.631Z,99.90
2023-03-27T05:21:32.306Z,99.90
2023-03-27T05:23:38.890Z,99.90
2023-03-27T05:24:41.816Z,99.90
2023-03-27T05:25:59.745Z,99.90
2023-03-27T05:27:03.768Z,99.90
2023-03-27T05:28:05.768Z,99.90
2023-03-27T05:29:09.137Z,99.90
2023-03-27T05:30:12.225Z,99.90
2023-03-27T05:31:15.202Z,99.90
2023-03-27T05:32:17.140Z,99.90
2023-03-27T05:33:20.619Z,99.90
2023-03-27T05:34:23.995Z,99.90
2023-03-27T05:35:28.407Z,99.90
2023-03-27T05:37:34.034Z,99.90
2023-03-27T05:38:36.960Z,99.90
2023-03-27T05:39:38.892Z,99.90
2023-03-27T05:40:42.036Z,99.90
2023-03-27T05:41:44.570Z,99.90
2023-03-27T05:42:47.539Z,99.90
2023-03-27T05:43:51.348Z,99.90
2023-03-27T05:44:54.487Z,99.90
2023-03-27T05:45:56.448Z,99.90
2023-03-27T05:46:59.928Z,99.90
2023-03-27T05:48:03.270Z,99.90
2023-03-27T05:50:10.260Z,99.90
2023-03-27T05:51:13.335Z,99.90
2023-03-27T05:52:16.048Z,99.90
2023-03-27T05:53:19.443Z,99.90
2023-03-27T05:56:30.875Z,99.90
2023-03-27T05:57:35.083Z,99.90
2023-03-27T05:58:38.703Z,99.90
2023-03-27T05:59:41.780Z,99.90
2023-03-27T06:01:48.983Z,99.90
2023-03-27T06:02:54.009Z,99.90
2023-03-27T06:04:59.653Z,99.90
2023-03-27T06:06:08.555Z,99.90
2023-03-27T06:07:12.615Z,99.90
2023-03-27T06:08:15.669Z,99.90
2023-03-27T06:09:17.597Z,99.90
2023-03-27T06:10:21.940Z,99.90
2023-03-27T06:11:23.928Z,99.90
2023-03-27T06:13:30.338Z,99.90
2023-03-27T06:14:32.274Z,99.90
2023-03-27T06:15:36.308Z,99.90
2023-03-27T06:16:40.197Z,99.90
2023-03-27T06:17:43.549Z,99.90
2023-03-27T06:18:46.482Z,99.90
2023-03-27T06:19:49.482Z,99.90
2023-03-27T06:20:52.784Z,99.90
2023-03-27T06:21:57.090Z,99.90
2023-03-27T06:23:00.140Z,99.90
2023-03-27T06:24:04.026Z,99.90
2023-03-27T06:25:06.926Z,99.90
2023-03-27T06:26:09.877Z,99.90
2023-03-27T06:27:11.883Z,99.90
2023-03-27T06:28:15.001Z,99.90
2023-03-27T06:30:22.524Z,99.90
2023-03-27T06:31:25.684Z,99.90
2023-03-27T06:32:27.789Z,99.90
2023-03-27T06:33:31.005Z,99.90
2023-03-27T06:34:32.920Z,99.90
2023-03-27T06:35:36.665Z,99.90
2023-03-27T06:36:38.616Z,99.90
2023-03-27T06:37:45.972Z,99.90
2023-03-27T06:38:50.399Z,99.90
2023-03-27T06:39:53.965Z,99.90
2023-03-27T06:41:59.407Z,99.90
2023-03-27T06:43:04.260Z,99.90
2023-03-27T06:44:06.511Z,99.90
2023-03-27T06:45:10.366Z,99.90
2023-03-27T06:46:12.545Z,99.90
2023-03-27T06:47:15.526Z,99.90
2023-03-27T06:48:21.978Z,99.90
2023-03-27T06:49:25.438Z,99.90
2023-03-27T06:50:29.434Z,99.90
2023-03-27T06:51:32.345Z,99.90
2023-03-27T06:53:38.958Z,99.90
2023-03-27T06:54:40.927Z,99.90
2023-03-27T06:55:44.920Z,99.90
2023-03-27T06:56:47.849Z,99.90
2023-03-27T06:57:51.974Z,99.90
2023-03-27T06:58:54.975Z,99.90
2023-03-27T07:01:03.729Z,99.90
2023-03-27T07:02:06.254Z,99.90
2023-03-27T07:03:11.833Z,99.90
2023-03-27T07:04:14.016Z,99.90
2023-03-27T07:05:17.199Z,99.90
2023-03-27T07:07:22.643Z,99.90
2023-03-27T07:08:25.654Z,99.90
2023-03-27T07:09:28.930Z,99.90
2023-03-27T07:10:31.854Z,99.90
2023-03-27T07:11:34.825Z,99.90
2023-03-27T07:12:37.038Z,99.90
2023-03-27T07:13:40.931Z,99.90
2023-03-27T07:14:42.860Z,99.90
2023-03-27T07:15:45.999Z,99.90
2023-03-27T07:16:48.980Z,99.90
2023-03-27T07:17:55.304Z,99.90
2023-03-27T07:19:00.907Z,99.90
2023-03-27T07:20:06.299Z,99.90
2023-03-27T07:21:09.267Z,99.90
2023-03-27T07:22:11.417Z,99.90
2023-03-27T07:23:14.354Z,99.90
2023-03-27T07:24:16.537Z,99.90
2023-03-27T07:25:20.885Z,99.90
2023-03-27T07:26:23.980Z,99.90
2023-03-27T07:27:26.075Z,99.90
2023-03-27T07:28:29.510Z,99.90
2023-03-27T07:29:31.732Z,99.90
2023-03-27T07:30:35.442Z,99.90
2023-03-27T07:31:55.922Z,99.90
2023-03-27T07:33:01.498Z,99.90
2023-03-27T07:34:04.833Z,99.90
2023-03-27T07:35:08.374Z,99.90
2023-03-27T07:36:11.871Z,99.90
2023-03-27T07:37:15.995Z,99.90
2023-03-27T07:39:21.669Z,99.90
2023-03-27T07:40:36.984Z,99.90
2023-03-27T07:41:42.623Z,99.90
2023-03-27T07:42:48.079Z,99.90
2023-03-27T07:43:51.250Z,99.90
2023-03-27T07:44:53.213Z,99.90
2023-03-27T07:45:56.413Z,99.90
2023-03-27T07:46:58.529Z,99.90
2023-03-27T07:48:06.641Z,99.90
2023-03-27T07:49:09.502Z,99.90
2023-03-27T07:50:13.554Z,99.90
2023-03-27T07:51:15.505Z,99.90
2023-03-27T07:53:33.258Z,99.90
2023-03-27T07:54:37.482Z,99.90
2023-03-27T07:55:41.997Z,99.90
2023-03-27T07:56:45.052Z,99.90
2023-03-27T07:57:59.851Z,99.90
2023-03-27T07:59:04.186Z,99.90
2023-03-27T08:00:11.627Z,99.90
2023-03-27T08:03:25.990Z,99.90
2023-03-27T08:04:29.395Z,99.90
2023-03-27T08:06:36.376Z,99.90
2023-03-27T08:07:40.613Z,99.90
2023-03-27T08:08:43.532Z,99.90
2023-03-27T08:09:46.419Z,99.90
2023-03-27T08:10:50.808Z,99.90
2023-03-27T08:11:52.752Z,99.90
2023-03-27T08:12:55.687Z,99.90
2023-03-27T08:14:00.599Z,99.90
2023-03-27T08:15:02.645Z,99.90
2023-03-27T08:16:08.012Z,99.90
2023-03-27T08:17:16.277Z,99.90
2023-03-27T08:19:22.782Z,99.90
2023-03-27T08:20:25.829Z,99.90
2023-03-27T08:21:31.733Z,99.90
2023-03-27T08:22:34.720Z,99.90
2023-03-27T08:23:38.734Z,99.90
2023-03-27T08:26:47.690Z,99.90
2023-03-27T08:27:51.066Z,99.90
2023-03-27T08:29:57.374Z,99.90
2023-03-27T08:31:02.554Z,99.90
2023-03-27T08:32:09.315Z,99.90
2023-03-27T08:34:14.489Z,99.90
2023-03-27T08:35:18.061Z,99.90
2023-03-27T08:36:22.980Z,99.90
2023-03-27T08:37:27.248Z,99.90
2023-03-27T08:39:36.109Z,99.90
2023-03-27T08:40:38.627Z,99.90
2023-03-27T08:41:50.306Z,99.90
2023-03-27T08:42:59.148Z,99.90
2023-03-27T08:44:03.916Z,99.90
2023-03-27T08:45:16.333Z,99.90
2023-03-27T08:46:24.008Z,99.90
2023-03-27T08:47:33.241Z,99.90
2023-03-27T08:48:43.472Z,99.90
2023-03-27T08:49:50.754Z,99.90
2023-03-27T08:50:57.383Z,99.90
2023-03-27T08:52:02.332Z,99.90
2023-03-27T08:53:12.518Z,99.90
2023-03-27T08:54:19.948Z,99.90
2023-03-27T08:55:33.815Z,99.90
2023-03-27T08:56:38.502Z,99.90
2023-03-27T08:57:43.200Z,99.90
2023-03-27T08:58:47.956Z,99.90
2023-03-27T08:59:54.099Z,99.90
2023-03-27T09:01:05.658Z,99.90
2023-03-27T09:02:16.794Z,99.90
2023-03-27T09:03:24.710Z,99.90
2023-03-27T09:04:37.395Z,99.90
2023-03-27T09:05:45.446Z,99.90
2023-03-27T09:06:59.480Z,99.90
2023-03-27T09:08:08.210Z,99.90
2023-03-27T09:09:20.004Z,99.90
2023-03-27T09:10:29.859Z,99.90
2023-03-27T09:11:42.928Z,99.90
2023-03-27T09:12:55.466Z,99.90
2023-03-27T09:14:02.014Z,99.90
2023-03-27T09:15:11.252Z,99.90
2023-03-27T09:16:21.291Z,99.90
2023-03-27T09:17:27.816Z,99.90
2023-03-27T09:18:35.115Z,99.90
2023-03-27T09:19:44.432Z,99.90
2023-03-27T09:20:51.921Z,99.90
2023-03-27T09:21:58.057Z,99.90
2023-03-27T09:23:06.529Z,99.90
2023-03-27T09:24:15.569Z,99.90
2023-03-27T09:25:28.305Z,99.90
2023-03-27T09:26:34.966Z,99.90
2023-03-27T09:27:38.355Z,99.90
2023-03-27T09:28:50.722Z,99.90
2023-03-27T09:30:05.318Z,99.90
2023-03-27T09:31:24.628Z,99.90
2023-03-27T09:32:26.696Z,99.90
2023-03-27T09:33:41.556Z,99.90
2023-03-27T09:34:44.076Z,99.90
2023-03-27T09:35:47.635Z,99.90
2023-03-27T09:36:49.908Z,99.90
2023-03-27T09:37:58.484Z,99.90
2023-03-27T09:39:09.699Z,99.90
2023-03-27T09:40:24.440Z,99.90
2023-03-27T09:41:30.624Z,99.90
2023-03-27T09:42:44.665Z,99.90
2023-03-27T09:43:55.105Z,99.90
2023-03-27T09:45:04.257Z,99.90
2023-03-27T09:46:08.481Z,99.90
2023-03-27T09:47:15.415Z,99.90
2023-03-27T09:48:31.671Z,99.90
2023-03-27T09:49:35.850Z,99.90
2023-03-27T09:50:44.400Z,99.90
2023-03-27T09:51:47.881Z,99.90
2023-03-27T09:52:52.303Z,99.90
2023-03-27T09:53:59.303Z,99.90
2023-03-27T09:55:02.990Z,99.90
2023-03-27T09:56:13.268Z,99.90
2023-03-27T09:57:15.368Z,99.90
2023-03-27T09:58:26.525Z,99.90
2023-03-27T09:59:32.202Z,99.90
2023-03-27T10:00:35.595Z,99.90
2023-03-27T10:01:38.878Z,99.90
2023-03-27T10:02:40.916Z,99.90
2023-03-27T10:03:49.803Z,99.90
2023-03-27T10:04:59.737Z,99.40
2023-03-27T10:06:07.801Z,99.90
2023-03-27T10:07:24.629Z,99.90
2023-03-27T10:08:37.859Z,99.70
2023-03-27T10:09:41.072Z,99.80
2023-03-27T10:10:45.862Z,98.90
2023-03-27T10:11:50.386Z,98.80
2023-03-27T10:12:55.883Z,99.40
2023-03-27T10:14:00.778Z,99.60
2023-03-27T10:15:05.179Z,99.60
2023-03-27T10:16:10.991Z,98.80
2023-03-27T10:17:23.681Z,98.10
2023-03-27T10:18:28.079Z,98.00
2023-03-27T10:19:33.798Z,97.10
2023-03-27T10:20:35.896Z,97.60
2023-03-27T10:21:43.225Z,98.10
2023-03-27T10:22:54.544Z,97.50
2023-03-27T10:24:04.109Z,96.60
2023-03-27T10:25:17.258Z,95.60
2023-03-27T10:26:21.612Z,93.40
2023-03-27T10:27:27.024Z,92.10
2023-03-27T10:28:30.482Z,91.50
2023-03-27T10:29:37.508Z,89.00
2023-03-27T10:30:42.163Z,84.80
2023-03-27T10:31:51.964Z,81.60
2023-03-27T10:32:54.977Z,81.50
2023-03-27T10:33:58.870Z,82.10
2023-03-27T10:35:03.133Z,81.80
2023-03-27T10:36:08.034Z,83.20
2023-03-27T10:37:23.161Z,86.30
2023-03-27T10:38:27.772Z,89.10
2023-03-27T10:39:35.758Z,90.80
2023-03-27T10:40:39.879Z,90.70
2023-03-27T10:41:42.871Z,92.10
2023-03-27T10:42:45.111Z,92.80
2023-03-27T10:43:50.726Z,92.20
2023-03-27T10:46:05.836Z,92.80
2023-03-27T10:47:21.009Z,91.60
2023-03-27T10:48:37.723Z,90.70
2023-03-27T10:49:43.666Z,86.90
2023-03-27T10:50:54.568Z,89.10
2023-03-27T10:52:10.832Z,89.30
2023-03-27T10:53:18.261Z,90.10
2023-03-27T10:54:33.997Z,90.70
2023-03-27T10:55:51.827Z,91.20
2023-03-27T10:56:58.736Z,91.60
2023-03-27T10:58:06.381Z,91.60
2023-03-27T10:59:16.517Z,91.50
2023-03-27T11:00:24.023Z,90.80
2023-03-27T11:01:32.313Z,91.60
2023-03-27T11:02:40.564Z,90.80
2023-03-27T11:03:50.252Z,90.20
2023-03-27T11:04:56.714Z,90.00
2023-03-27T11:06:04.130Z,89.50
2023-03-27T11:07:11.935Z,87.60
2023-03-27T11:08:20.669Z,86.70
2023-03-27T11:09:26.912Z,88.70
2023-03-27T11:10:34.926Z,87.60
2023-03-27T11:11:42.186Z,88.20
2023-03-27T11:12:52.296Z,86.50
2023-03-27T11:13:56.702Z,87.00
2023-03-27T11:15:07.300Z,87.80
2023-03-27T11:16:15.755Z,86.80
2023-03-27T11:17:24.927Z,85.90
2023-03-27T11:18:38.526Z,88.70
2023-03-27T11:19:46.629Z,90.00
2023-03-27T11:20:52.640Z,86.70
2023-03-27T11:21:59.128Z,87.40
2023-03-27T11:23:07.403Z,87.40
2023-03-27T11:24:17.971Z,89.90
2023-03-27T11:25:27.000Z,90.70
2023-03-27T11:26:35.792Z,90.80
2023-03-27T11:27:44.124Z,90.50
2023-03-27T11:28:53.225Z,87.50
2023-03-27T11:30:06.001Z,85.50
2023-03-27T11:31:17.382Z,86.00
2023-03-27T11:32:28.410Z,80.20
2023-03-27T11:33:40.166Z,77.80
2023-03-27T11:34:48.286Z,77.30
2023-03-27T11:35:56.537Z,79.30
2023-03-27T11:37:01.701Z,82.10
2023-03-27T11:38:09.134Z,82.60
2023-03-27T11:39:19.119Z,83.10
2023-03-27T11:40:26.802Z,85.10
2023-03-27T11:41:28.803Z,84.70
2023-03-27T11:42:36.833Z,84.90
2023-03-27T11:43:40.591Z,86.50
2023-03-27T11:44:44.144Z,86.80
2023-03-27T11:45:57.370Z,84.60
2023-03-27T11:47:24.937Z,83.30
2023-03-27T11:48:52.133Z,84.20
2023-03-27T11:50:22.363Z,83.60
2023-03-27T11:51:36.803Z,85.40
2023-03-27T11:52:53.475Z,85.00
2023-03-27T11:54:09.710Z,85.90
2023-03-27T11:55:24.070Z,85.50
2023-03-27T11:56:41.820Z,84.70
2023-03-27T11:58:00.673Z,83.50
2023-03-27T11:59:24.954Z,86.10
2023-03-27T12:00:33.912Z,86.70
2023-03-27T12:01:40.448Z,85.80
2023-03-27T12:03:06.794Z,86.70
2023-03-27T12:04:30.310Z,87.60
2023-03-27T12:05:41.201Z,88.10
2023-03-27T12:06:51.001Z,86.70
2023-03-27T12:08:04.508Z,83.30
2023-03-27T12:09:21.585Z,84.90
2023-03-27T12:10:35.205Z,85.60
2023-03-27T12:11:42.348Z,84.10
2023-03-27T12:13:24.315Z,84.00
2023-03-27T12:14:44.684Z,85.70
2023-03-27T12:16:23.145Z,85.80
2023-03-27T12:17:43.430Z,86.10
2023-03-27T12:19:08.098Z,87.00
2023-03-27T12:20:52.556Z,87.20
2023-03-27T12:22:20.743Z,84.40
2023-03-27T12:23:48.336Z,83.40
2023-03-27T12:25:05.420Z,82.70
2023-03-27T12:26:23.049Z,80.40
2023-03-27T12:27:37.713Z,82.00
2023-03-27T12:28:55.225Z,82.80
2023-03-27T12:30:14.801Z,81.90
2023-03-27T12:31:31.435Z,81.90
2023-03-27T12:33:13.161Z,82.90
2023-03-27T12:34:33.421Z,82.20
2023-03-27T12:35:43.000Z,80.30
2023-03-27T12:36:52.360Z,79.70
2023-03-27T12:37:59.025Z,82.10
2023-03-27T12:39:01.979Z,82.10
2023-03-27T12:40:25.660Z,81.80
2023-03-27T12:41:31.395Z,84.50
2023-03-27T12:42:43.598Z,83.80
2023-03-27T12:43:48.739Z,82.50
2023-03-27T12:45:06.430Z,83.20
2023-03-27T12:46:20.702Z,81.80
2023-03-27T12:47:26.481Z,80.90
2023-03-27T12:48:28.523Z,83.10
2023-03-27T12:49:47.664Z,81.60
2023-03-27T12:50:58.367Z,81.20
2023-03-27T12:52:04.720Z,83.20
2023-03-27T12:53:07.678Z,82.60
2023-03-27T12:54:15.906Z,83.30
2023-03-27T12:55:32.095Z,86.20
2023-03-27T12:56:38.158Z,88.80
2023-03-27T12:57:43.538Z,89.00
2023-03-27T12:58:49.133Z,86.50
2023-03-27T12:59:55.439Z,86.50
2023-03-27T13:01:00.601Z,85.60
2023-03-27T13:02:49.284Z,86.40
2023-03-27T13:04:11.028Z,85.00
2023-03-27T13:05:39.471Z,83.50
2023-03-27T13:06:51.551Z,85.40
2023-03-27T13:08:07.133Z,85.70
2023-03-27T13:09:42.114Z,84.40
2023-03-27T13:10:56.018Z,84.20
2023-03-27T13:12:19.386Z,82.70
2023-03-27T13:13:52.774Z,82.10
2023-03-27T13:15:21.903Z,85.60
2023-03-27T13:16:47.879Z,84.40
2023-03-27T13:18:13.981Z,83.70
2023-03-27T13:19:31.052Z,82.30
2023-03-27T13:20:45.554Z,85.50
2023-03-27T13:22:00.789Z,83.50
2023-03-27T13:23:19.557Z,82.00
2023-03-27T13:24:46.295Z,84.50
2023-03-27T13:26:07.860Z,84.10
2023-03-27T13:27:23.283Z,82.20
2023-03-27T13:28:37.026Z,80.20
2023-03-27T13:29:39.197Z,79.30
2023-03-27T13:30:46.629Z,80.80
2023-03-27T13:32:07.463Z,80.90
2023-03-27T13:33:14.291Z,81.10
2023-03-27T13:34:35.909Z,82.60
2023-03-27T13:35:41.434Z,82.50
2023-03-27T13:36:48.718Z,81.20
2023-03-27T13:37:58.295Z,82.00
2023-03-27T13:39:21.032Z,83.60
2023-03-27T13:40:27.796Z,81.60
2023-03-27T13:41:55.085Z,80.70
2023-03-27T13:43:05.073Z,81.10
2023-03-27T13:44:12.372Z,79.40
2023-03-27T13:45:20.155Z,81.10
2023-03-27T13:46:24.953Z,80.00
2023-03-27T13:48:13.836Z,83.20
2023-03-27T13:49:34.884Z,83.60
2023-03-27T13:51:14.370Z,83.40
2023-03-27T13:52:34.631Z,83.50
2023-03-27T13:53:54.296Z,87.60
2023-03-27T13:55:17.211Z,90.10
2023-03-27T13:56:41.272Z,91.30
2023-03-27T13:57:56.916Z,92.20
2023-03-27T13:59:36.764Z,92.20
2023-03-27T14:00:52.937Z,92.30
2023-03-27T14:02:09.976Z,91.50
2023-03-27T14:03:45.169Z,91.90
2023-03-27T14:05:05.846Z,92.40
2023-03-27T14:06:46.193Z,91.20
2023-03-27T14:08:15.163Z,92.30
2023-03-27T14:09:32.576Z,91.60
2023-03-27T14:10:53.553Z,91.40
2023-03-27T14:12:08.263Z,90.30
2023-03-27T14:13:24.967Z,90.40
2023-03-27T14:14:43.015Z,90.20
2023-03-27T14:16:08.643Z,85.80
2023-03-27T14:17:24.954Z,88.20
2023-03-27T14:18:53.088Z,85.60
2023-03-27T14:20:14.247Z,85.00
2023-03-27T14:21:31.209Z,85.70
2023-03-27T14:22:44.911Z,84.10
2023-03-27T14:23:53.211Z,83.90
2023-03-27T14:24:58.669Z,82.80
2023-03-27T14:26:04.324Z,84.20
2023-03-27T14:27:10.781Z,86.20
2023-03-27T14:28:31.599Z,85.80
2023-03-27T14:29:34.836Z,82.80
2023-03-27T14:30:45.662Z,85.50
2023-03-27T14:31:47.877Z,86.40
2023-03-27T14:32:51.255Z,85.10
2023-03-27T14:34:01.089Z,86.00
2023-03-27T14:35:05.546Z,84.60
2023-03-27T14:36:16.996Z,85.40
2023-03-27T14:37:28.892Z,85.20
2023-03-27T14:38:33.909Z,83.80
2023-03-27T14:39:38.299Z,83.60
2023-03-27T14:40:47.434Z,82.50
2023-03-27T14:41:53.836Z,80.90
2023-03-27T14:42:58.338Z,84.40
2023-03-27T14:44:03.974Z,84.60
2023-03-27T14:45:17.982Z,83.30
2023-03-27T14:46:22.428Z,86.40
2023-03-27T14:47:24.460Z,84.80
2023-03-27T14:48:31.803Z,83.80
2023-03-27T14:49:37.597Z,83.80
2023-03-27T14:50:40.990Z,83.80
2023-03-27T14:51:47.906Z,84.30
2023-03-27T14:52:52.815Z,86.50
2023-03-27T14:54:02.989Z,89.80
2023-03-27T14:55:06.258Z,89.20
2023-03-27T14:56:21.930Z,92.40
2023-03-27T14:57:25.760Z,95.20
2023-03-27T14:58:29.000Z,96.20
2023-03-27T14:59:34.703Z,94.80
2023-03-27T15:00:40.531Z,94.60
2023-03-27T15:01:42.764Z,95.80
2023-03-27T15:02:48.276Z,96.20
2023-03-27T15:03:52.942Z,95.60
2023-03-27T15:04:56.548Z,95.00
2023-03-27T15:06:04.581Z,95.40
2023-03-27T15:07:14.516Z,95.80
2023-03-27T15:08:22.173Z,95.40
2023-03-27T15:09:24.123Z,95.20
2023-03-27T15:10:28.615Z,95.30
2023-03-27T15:11:38.314Z,94.70
2023-03-27T15:12:47.146Z,94.70
2023-03-27T15:13:50.596Z,94.90
2023-03-27T15:14:53.812Z,94.80